sensor_id;sensor_type;location;lat;lon;timestamp;P1;durP1;ratioP1;P2;durP2;ratioP2
3777;SDS011;1904;50.076;8.660;2022-07-05T00:02:02;6.03;;;1.80;;
3777;SDS011;1904;50.076;8.660;2022-07-05T00:04:28;2.10;;;1.83;;
3777;SDS011;1904;50.076;8.660;2022-07-05T00:06:54;9.80;;;1.67;;
3777;SDS011;1904;50.076;8.660;2022-07-05T00:09:38;5.30;;;2.10;;
3777;SDS011;1904;50.076;8.660;2022-07-05T00:12:04;2.97;;;2.20;;
3777;SDS011;1904;50.076;8.660;2022-07-05T00:14:30;8.73;;;2.00;;
3777;SDS011;1904;50.076;8.660;2022-07-05T00:16:56;2.93;;;1.80;;
3777;SDS011;1904;50.076;8.660;2022-07-05T00:19:22;6.13;;;2.00;;
3777;SDS011;1904;50.076;8.660;2022-07-05T00:21:47;13.23;;;1.50;;
3777;SDS011;1904;50.076;8.660;2022-07-05T00:24:13;2.20;;;2.00;;
3777;SDS011;1904;50.076;8.660;2022-07-05T00:26:39;2.50;;;1.60;;
3777;SDS011;1904;50.076;8.660;2022-07-05T00:29:05;2.70;;;2.00;;
3777;SDS011;1904;50.076;8.660;2022-07-05T00:31:30;4.00;;;1.80;;
3777;SDS011;1904;50.076;8.660;2022-07-05T00:33:56;4.40;;;1.83;;
3777;SDS011;1904;50.076;8.660;2022-07-05T00:36:22;1.93;;;1.70;;
3777;SDS011;1904;50.076;8.660;2022-07-05T00:38:51;2.33;;;1.50;;
3777;SDS011;1904;50.076;8.660;2022-07-05T00:41:18;6.80;;;2.20;;
3777;SDS011;1904;50.076;8.660;2022-07-05T00:44:00;3.10;;;1.90;;
3777;SDS011;1904;50.076;8.660;2022-07-05T00:46:28;5.33;;;1.90;;
3777;SDS011;1904;50.076;8.660;2022-07-05T00:48:55;3.50;;;1.83;;
3777;SDS011;1904;50.076;8.660;2022-07-05T00:51:21;2.43;;;1.73;;
3777;SDS011;1904;50.076;8.660;2022-07-05T00:53:48;2.80;;;1.50;;
3777;SDS011;1904;50.076;8.660;2022-07-05T00:56:15;6.63;;;1.83;;
3777;SDS011;1904;50.076;8.660;2022-07-05T00:58:45;2.50;;;1.70;;
3777;SDS011;1904;50.076;8.660;2022-07-05T01:13:22;6.03;;;2.20;;
3777;SDS011;1904;50.076;8.660;2022-07-05T01:15:49;2.30;;;2.10;;
3777;SDS011;1904;50.076;8.660;2022-07-05T01:18:14;4.27;;;2.03;;
3777;SDS011;1904;50.076;8.660;2022-07-05T01:20:51;4.40;;;1.93;;
3777;SDS011;1904;50.076;8.660;2022-07-05T01:23:17;3.63;;;1.80;;
3777;SDS011;1904;50.076;8.660;2022-07-05T01:25:44;3.50;;;2.13;;
3777;SDS011;1904;50.076;8.660;2022-07-05T01:28:15;4.13;;;1.67;;
3777;SDS011;1904;50.076;8.660;2022-07-05T01:37:33;2.80;;;2.03;;
3777;SDS011;1904;50.076;8.660;2022-07-05T01:40:09;3.53;;;1.97;;
3777;SDS011;1904;50.076;8.660;2022-07-05T01:49:00;6.60;;;2.20;;
3777;SDS011;1904;50.076;8.660;2022-07-05T01:51:34;4.20;;;1.90;;
3777;SDS011;1904;50.076;8.660;2022-07-05T01:54:04;5.90;;;1.63;;
3777;SDS011;1904;50.076;8.660;2022-07-05T02:02:57;3.30;;;2.07;;
3777;SDS011;1904;50.076;8.660;2022-07-05T02:14:21;2.37;;;1.80;;
3777;SDS011;1904;50.076;8.660;2022-07-05T02:29:09;3.90;;;2.27;;
3777;SDS011;1904;50.076;8.660;2022-07-05T02:31:45;5.60;;;2.10;;
3777;SDS011;1904;50.076;8.660;2022-07-05T02:34:15;2.60;;;1.83;;
3777;SDS011;1904;50.076;8.660;2022-07-05T02:40:21;3.97;;;1.93;;
3777;SDS011;1904;50.076;8.660;2022-07-05T02:42:47;2.13;;;1.87;;
3777;SDS011;1904;50.076;8.660;2022-07-05T02:45:12;2.33;;;1.80;;
3777;SDS011;1904;50.076;8.660;2022-07-05T02:47:38;1.90;;;1.70;;
3777;SDS011;1904;50.076;8.660;2022-07-05T02:50:07;5.40;;;2.00;;
3777;SDS011;1904;50.076;8.660;2022-07-05T02:52:34;2.70;;;2.00;;
3777;SDS011;1904;50.076;8.660;2022-07-05T02:55:01;3.90;;;1.80;;
3777;SDS011;1904;50.076;8.660;2022-07-05T02:57:30;5.53;;;2.50;;
3777;SDS011;1904;50.076;8.660;2022-07-05T02:59:55;3.77;;;2.33;;
3777;SDS011;1904;50.076;8.660;2022-07-05T03:02:27;2.87;;;2.20;;
3777;SDS011;1904;50.076;8.660;2022-07-05T03:04:53;5.87;;;2.27;;
3777;SDS011;1904;50.076;8.660;2022-07-05T03:07:19;2.97;;;2.20;;
3777;SDS011;1904;50.076;8.660;2022-07-05T03:09:44;4.03;;;2.43;;
3777;SDS011;1904;50.076;8.660;2022-07-05T03:14:58;2.33;;;2.13;;
3777;SDS011;1904;50.076;8.660;2022-07-05T03:17:39;4.20;;;1.80;;
3777;SDS011;1904;50.076;8.660;2022-07-05T03:20:05;2.40;;;2.20;;
3777;SDS011;1904;50.076;8.660;2022-07-05T03:22:33;6.00;;;2.77;;
3777;SDS011;1904;50.076;8.660;2022-07-05T03:25:00;2.97;;;2.70;;
3777;SDS011;1904;50.076;8.660;2022-07-05T03:27:27;3.93;;;2.47;;
3777;SDS011;1904;50.076;8.660;2022-07-05T03:29:57;3.30;;;2.33;;
3777;SDS011;1904;50.076;8.660;2022-07-05T03:32:23;1.97;;;1.87;;
3777;SDS011;1904;50.076;8.660;2022-07-05T03:34:48;3.73;;;2.20;;
3777;SDS011;1904;50.076;8.660;2022-07-05T03:37:14;3.97;;;2.10;;
3777;SDS011;1904;50.076;8.660;2022-07-05T03:39:40;10.30;;;3.07;;
3777;SDS011;1904;50.076;8.660;2022-07-05T03:42:06;3.90;;;2.17;;
3777;SDS011;1904;50.076;8.660;2022-07-05T03:50:41;5.10;;;2.50;;
3777;SDS011;1904;50.076;8.660;2022-07-05T03:59:50;3.17;;;2.43;;
3777;SDS011;1904;50.076;8.660;2022-07-05T04:15:43;3.83;;;2.63;;
3777;SDS011;1904;50.076;8.660;2022-07-05T04:37:41;2.40;;;2.30;;
3777;SDS011;1904;50.076;8.660;2022-07-05T04:40:15;2.57;;;2.37;;
3777;SDS011;1904;50.076;8.660;2022-07-05T04:46:02;5.23;;;2.60;;
3777;SDS011;1904;50.076;8.660;2022-07-05T04:55:12;4.40;;;2.60;;
3777;SDS011;1904;50.076;8.660;2022-07-05T05:00:27;4.57;;;3.13;;
3777;SDS011;1904;50.076;8.660;2022-07-05T05:03:09;4.83;;;3.40;;
3777;SDS011;1904;50.076;8.660;2022-07-05T05:15:40;2.30;;;2.10;;
3777;SDS011;1904;50.076;8.660;2022-07-05T05:21:28;3.13;;;2.10;;
3777;SDS011;1904;50.076;8.660;2022-07-05T05:27:16;5.33;;;2.40;;
3777;SDS011;1904;50.076;8.660;2022-07-05T05:29:57;3.90;;;2.10;;
3777;SDS011;1904;50.076;8.660;2022-07-05T05:48:16;2.33;;;2.23;;
3777;SDS011;1904;50.076;8.660;2022-07-05T05:53:39;4.10;;;2.23;;
3777;SDS011;1904;50.076;8.660;2022-07-05T05:56:15;5.73;;;2.93;;
3777;SDS011;1904;50.076;8.660;2022-07-05T06:02:03;8.80;;;2.10;;
3777;SDS011;1904;50.076;8.660;2022-07-05T06:11:09;3.00;;;1.80;;
3777;SDS011;1904;50.076;8.660;2022-07-05T06:23:09;12.27;;;2.50;;
3777;SDS011;1904;50.076;8.660;2022-07-05T06:32:02;7.20;;;2.63;;
3777;SDS011;1904;50.076;8.660;2022-07-05T06:34:33;1.83;;;1.73;;
3777;SDS011;1904;50.076;8.660;2022-07-05T06:40:24;3.27;;;1.60;;
3777;SDS011;1904;50.076;8.660;2022-07-05T06:46:19;9.93;;;2.23;;
3777;SDS011;1904;50.076;8.660;2022-07-05T06:48:45;4.40;;;2.03;;
3777;SDS011;1904;50.076;8.660;2022-07-05T06:51:27;5.47;;;2.40;;
3777;SDS011;1904;50.076;8.660;2022-07-05T06:54:09;2.30;;;2.07;;
3777;SDS011;1904;50.076;8.660;2022-07-05T07:00:03;6.23;;;2.20;;
3777;SDS011;1904;50.076;8.660;2022-07-05T07:12:21;10.13;;;2.27;;
3777;SDS011;1904;50.076;8.660;2022-07-05T07:14:47;12.87;;;2.00;;
3777;SDS011;1904;50.076;8.660;2022-07-05T07:17:15;3.37;;;1.97;;
3777;SDS011;1904;50.076;8.660;2022-07-05T07:19:45;4.57;;;2.03;;
3777;SDS011;1904;50.076;8.660;2022-07-05T07:22:15;3.03;;;1.90;;
3777;SDS011;1904;50.076;8.660;2022-07-05T07:24:45;3.90;;;2.00;;
3777;SDS011;1904;50.076;8.660;2022-07-05T07:27:11;2.70;;;1.83;;
3777;SDS011;1904;50.076;8.660;2022-07-05T07:29:38;5.53;;;2.03;;
3777;SDS011;1904;50.076;8.660;2022-07-05T07:32:05;6.97;;;2.47;;
3777;SDS011;1904;50.076;8.660;2022-07-05T07:37:53;3.17;;;2.10;;
3777;SDS011;1904;50.076;8.660;2022-07-05T07:40:19;7.23;;;1.77;;
3777;SDS011;1904;50.076;8.660;2022-07-05T07:42:44;3.37;;;1.77;;
3777;SDS011;1904;50.076;8.660;2022-07-05T07:45:10;3.37;;;1.90;;
3777;SDS011;1904;50.076;8.660;2022-07-05T07:47:36;6.27;;;1.97;;
3777;SDS011;1904;50.076;8.660;2022-07-05T07:50:02;3.47;;;1.90;;
3777;SDS011;1904;50.076;8.660;2022-07-05T07:52:30;11.40;;;2.20;;
3777;SDS011;1904;50.076;8.660;2022-07-05T07:54:58;5.40;;;1.97;;
3777;SDS011;1904;50.076;8.660;2022-07-05T07:57:24;3.80;;;2.10;;
3777;SDS011;1904;50.076;8.660;2022-07-05T07:59:49;3.67;;;1.97;;
3777;SDS011;1904;50.076;8.660;2022-07-05T08:02:27;2.20;;;2.00;;
3777;SDS011;1904;50.076;8.660;2022-07-05T08:04:53;6.03;;;1.93;;
3777;SDS011;1904;50.076;8.660;2022-07-05T08:07:18;2.33;;;1.90;;
3777;SDS011;1904;50.076;8.660;2022-07-05T08:09:45;5.97;;;1.73;;
3777;SDS011;1904;50.076;8.660;2022-07-05T08:12:15;1.70;;;1.60;;
3777;SDS011;1904;50.076;8.660;2022-07-05T08:14:41;1.83;;;1.70;;
3777;SDS011;1904;50.076;8.660;2022-07-05T08:17:07;5.77;;;2.03;;
3777;SDS011;1904;50.076;8.660;2022-07-05T08:19:46;3.73;;;2.13;;
3777;SDS011;1904;50.076;8.660;2022-07-05T08:22:30;6.63;;;1.77;;
3777;SDS011;1904;50.076;8.660;2022-07-05T08:24:57;4.13;;;1.57;;
3777;SDS011;1904;50.076;8.660;2022-07-05T08:27:23;2.63;;;1.80;;
3777;SDS011;1904;50.076;8.660;2022-07-05T08:29:49;3.60;;;1.87;;
3777;SDS011;1904;50.076;8.660;2022-07-05T08:32:18;4.83;;;1.97;;
3777;SDS011;1904;50.076;8.660;2022-07-05T08:34:43;1.67;;;1.40;;
3777;SDS011;1904;50.076;8.660;2022-07-05T08:37:15;9.17;;;1.87;;
3777;SDS011;1904;50.076;8.660;2022-07-05T08:39:41;7.20;;;1.90;;
3777;SDS011;1904;50.076;8.660;2022-07-05T08:42:08;2.40;;;1.40;;
3777;SDS011;1904;50.076;8.660;2022-07-05T08:44:35;5.90;;;1.70;;
3777;SDS011;1904;50.076;8.660;2022-07-05T08:47:04;2.40;;;1.40;;
3777;SDS011;1904;50.076;8.660;2022-07-05T08:49:40;2.47;;;1.43;;
3777;SDS011;1904;50.076;8.660;2022-07-05T08:52:07;3.27;;;1.40;;
3777;SDS011;1904;50.076;8.660;2022-07-05T08:54:37;1.80;;;1.27;;
3777;SDS011;1904;50.076;8.660;2022-07-05T08:57:04;4.00;;;1.20;;
3777;SDS011;1904;50.076;8.660;2022-07-05T08:59:33;7.83;;;1.53;;
3777;SDS011;1904;50.076;8.660;2022-07-05T09:01:59;2.43;;;1.23;;
3777;SDS011;1904;50.076;8.660;2022-07-05T09:04:28;3.90;;;1.57;;
3777;SDS011;1904;50.076;8.660;2022-07-05T09:06:56;4.00;;;1.30;;
3777;SDS011;1904;50.076;8.660;2022-07-05T09:09:30;2.70;;;1.17;;
3777;SDS011;1904;50.076;8.660;2022-07-05T09:11:57;3.00;;;1.40;;
3777;SDS011;1904;50.076;8.660;2022-07-05T09:14:24;3.23;;;1.00;;
3777;SDS011;1904;50.076;8.660;2022-07-05T09:16:51;4.53;;;1.03;;
3777;SDS011;1904;50.076;8.660;2022-07-05T09:19:17;8.27;;;1.47;;
3777;SDS011;1904;50.076;8.660;2022-07-05T09:21:43;1.13;;;1.00;;
3777;SDS011;1904;50.076;8.660;2022-07-05T09:24:15;2.67;;;0.90;;
3777;SDS011;1904;50.076;8.660;2022-07-05T09:26:45;5.90;;;1.10;;
3777;SDS011;1904;50.076;8.660;2022-07-05T09:29:15;2.83;;;0.90;;
3777;SDS011;1904;50.076;8.660;2022-07-05T09:31:47;6.43;;;1.10;;
3777;SDS011;1904;50.076;8.660;2022-07-05T09:34:20;2.20;;;1.00;;
3777;SDS011;1904;50.076;8.660;2022-07-05T09:36:53;1.37;;;1.00;;
3777;SDS011;1904;50.076;8.660;2022-07-05T09:49:12;3.03;;;0.80;;
3777;SDS011;1904;50.076;8.660;2022-07-05T10:00:29;16.50;;;1.60;;
3777;SDS011;1904;50.076;8.660;2022-07-05T10:06:09;2.80;;;1.00;;
3777;SDS011;1904;50.076;8.660;2022-07-05T10:08:35;5.13;;;1.33;;
3777;SDS011;1904;50.076;8.660;2022-07-05T10:11:03;9.23;;;1.20;;
3777;SDS011;1904;50.076;8.660;2022-07-05T10:13:30;1.97;;;1.20;;
3777;SDS011;1904;50.076;8.660;2022-07-05T10:15:56;1.57;;;1.00;;
3777;SDS011;1904;50.076;8.660;2022-07-05T10:18:22;2.27;;;1.00;;
3777;SDS011;1904;50.076;8.660;2022-07-05T10:20:56;1.10;;;1.00;;
3777;SDS011;1904;50.076;8.660;2022-07-05T10:23:24;2.43;;;1.10;;
3777;SDS011;1904;50.076;8.660;2022-07-05T10:25:52;5.40;;;1.53;;
3777;SDS011;1904;50.076;8.660;2022-07-05T10:28:19;3.27;;;1.17;;
3777;SDS011;1904;50.076;8.660;2022-07-05T10:30:47;1.50;;;1.00;;
3777;SDS011;1904;50.076;8.660;2022-07-05T10:33:20;1.90;;;1.10;;
3777;SDS011;1904;50.076;8.660;2022-07-05T10:35:50;2.27;;;1.10;;
3777;SDS011;1904;50.076;8.660;2022-07-05T10:38:16;4.67;;;1.23;;
3777;SDS011;1904;50.076;8.660;2022-07-05T10:40:43;2.47;;;1.30;;
3777;SDS011;1904;50.076;8.660;2022-07-05T10:43:15;2.83;;;1.30;;
3777;SDS011;1904;50.076;8.660;2022-07-05T10:45:51;2.60;;;1.00;;
3777;SDS011;1904;50.076;8.660;2022-07-05T10:51:39;7.03;;;1.50;;
3777;SDS011;1904;50.076;8.660;2022-07-05T10:57:39;2.53;;;1.30;;
3777;SDS011;1904;50.076;8.660;2022-07-05T11:03:05;3.57;;;1.10;;
3777;SDS011;1904;50.076;8.660;2022-07-05T11:05:32;3.13;;;1.20;;
3777;SDS011;1904;50.076;8.660;2022-07-05T11:10:30;1.27;;;1.17;;
3777;SDS011;1904;50.076;8.660;2022-07-05T11:12:57;5.53;;;1.10;;
3777;SDS011;1904;50.076;8.660;2022-07-05T11:15:27;2.37;;;0.90;;
3777;SDS011;1904;50.076;8.660;2022-07-05T11:21:20;1.70;;;1.23;;
3777;SDS011;1904;50.076;8.660;2022-07-05T11:32:34;2.90;;;1.20;;
3777;SDS011;1904;50.076;8.660;2022-07-05T11:38:04;3.77;;;1.20;;
3777;SDS011;1904;50.076;8.660;2022-07-05T11:40:39;2.10;;;1.10;;
3777;SDS011;1904;50.076;8.660;2022-07-05T11:46:28;7.30;;;1.47;;
3777;SDS011;1904;50.076;8.660;2022-07-05T11:49:09;3.30;;;1.57;;
3777;SDS011;1904;50.076;8.660;2022-07-05T11:54:58;4.57;;;1.10;;
3777;SDS011;1904;50.076;8.660;2022-07-05T12:01:04;7.23;;;1.40;;
3777;SDS011;1904;50.076;8.660;2022-07-05T12:03:31;4.70;;;1.40;;
3777;SDS011;1904;50.076;8.660;2022-07-05T12:05:57;2.77;;;1.33;;
3777;SDS011;1904;50.076;8.660;2022-07-05T12:08:22;4.13;;;1.30;;
3777;SDS011;1904;50.076;8.660;2022-07-05T12:10:49;1.33;;;1.10;;
3777;SDS011;1904;50.076;8.660;2022-07-05T12:13:44;3.50;;;1.30;;
3777;SDS011;1904;50.076;8.660;2022-07-05T12:16:10;3.10;;;1.17;;
3777;SDS011;1904;50.076;8.660;2022-07-05T12:18:49;3.33;;;1.20;;
3777;SDS011;1904;50.076;8.660;2022-07-05T12:21:25;2.00;;;1.53;;
3777;SDS011;1904;50.076;8.660;2022-07-05T12:23:51;2.50;;;1.20;;
3777;SDS011;1904;50.076;8.660;2022-07-05T12:26:21;1.30;;;1.20;;
3777;SDS011;1904;50.076;8.660;2022-07-05T12:28:48;4.80;;;1.30;;
3777;SDS011;1904;50.076;8.660;2022-07-05T12:31:23;6.20;;;1.40;;
3777;SDS011;1904;50.076;8.660;2022-07-05T12:34:07;4.83;;;1.10;;
3777;SDS011;1904;50.076;8.660;2022-07-05T12:39:35;9.47;;;1.40;;
3777;SDS011;1904;50.076;8.660;2022-07-05T12:51:40;1.50;;;1.10;;
3777;SDS011;1904;50.076;8.660;2022-07-05T12:54:24;1.37;;;1.07;;
3777;SDS011;1904;50.076;8.660;2022-07-05T12:57:09;2.87;;;0.93;;
3777;SDS011;1904;50.076;8.660;2022-07-05T13:08:39;1.47;;;1.10;;
3777;SDS011;1904;50.076;8.660;2022-07-05T13:11:09;1.50;;;1.17;;
3777;SDS011;1904;50.076;8.660;2022-07-05T13:13:39;2.33;;;1.23;;
3777;SDS011;1904;50.076;8.660;2022-07-05T13:19:11;2.80;;;1.50;;
3777;SDS011;1904;50.076;8.660;2022-07-05T13:21:37;1.67;;;1.07;;
3777;SDS011;1904;50.076;8.660;2022-07-05T13:24:04;1.20;;;1.10;;
3777;SDS011;1904;50.076;8.660;2022-07-05T13:26:30;1.23;;;1.23;;
3777;SDS011;1904;50.076;8.660;2022-07-05T13:28:56;1.47;;;1.20;;
3777;SDS011;1904;50.076;8.660;2022-07-05T13:31:22;2.03;;;1.20;;
3777;SDS011;1904;50.076;8.660;2022-07-05T13:33:51;2.90;;;1.60;;
3777;SDS011;1904;50.076;8.660;2022-07-05T13:36:17;4.10;;;1.10;;
3777;SDS011;1904;50.076;8.660;2022-07-05T13:38:42;1.47;;;1.27;;
3777;SDS011;1904;50.076;8.660;2022-07-05T13:41:08;2.60;;;1.33;;
3777;SDS011;1904;50.076;8.660;2022-07-05T13:43:34;1.93;;;1.40;;
3777;SDS011;1904;50.076;8.660;2022-07-05T13:46:00;2.87;;;1.50;;
3777;SDS011;1904;50.076;8.660;2022-07-05T13:51:57;6.70;;;1.13;;
3777;SDS011;1904;50.076;8.660;2022-07-05T13:54:39;4.90;;;1.23;;
3777;SDS011;1904;50.076;8.660;2022-07-05T13:57:09;1.40;;;1.30;;
3777;SDS011;1904;50.076;8.660;2022-07-05T13:59:39;2.20;;;1.30;;
3777;SDS011;1904;50.076;8.660;2022-07-05T14:02:05;2.90;;;1.40;;
3777;SDS011;1904;50.076;8.660;2022-07-05T14:04:31;1.87;;;1.10;;
3777;SDS011;1904;50.076;8.660;2022-07-05T14:06:58;1.50;;;1.40;;
3777;SDS011;1904;50.076;8.660;2022-07-05T14:09:24;1.20;;;1.10;;
3777;SDS011;1904;50.076;8.660;2022-07-05T14:11:51;3.03;;;1.37;;
3777;SDS011;1904;50.076;8.660;2022-07-05T14:14:17;2.80;;;1.30;;
3777;SDS011;1904;50.076;8.660;2022-07-05T14:16:43;2.77;;;1.50;;
3777;SDS011;1904;50.076;8.660;2022-07-05T14:19:08;1.77;;;1.40;;
3777;SDS011;1904;50.076;8.660;2022-07-05T14:21:34;8.40;;;1.70;;
3777;SDS011;1904;50.076;8.660;2022-07-05T14:24:00;4.00;;;2.00;;
3777;SDS011;1904;50.076;8.660;2022-07-05T14:26:25;1.50;;;1.40;;
3777;SDS011;1904;50.076;8.660;2022-07-05T14:28:52;2.83;;;1.70;;
3777;SDS011;1904;50.076;8.660;2022-07-05T14:31:18;2.27;;;1.20;;
3777;SDS011;1904;50.076;8.660;2022-07-05T14:33:51;6.83;;;1.27;;
3777;SDS011;1904;50.076;8.660;2022-07-05T14:36:21;2.80;;;1.40;;
3777;SDS011;1904;50.076;8.660;2022-07-05T14:38:47;1.90;;;1.33;;
3777;SDS011;1904;50.076;8.660;2022-07-05T14:43:59;2.83;;;1.30;;
3777;SDS011;1904;50.076;8.660;2022-07-05T14:46:27;1.23;;;1.13;;
3777;SDS011;1904;50.076;8.660;2022-07-05T14:48:53;8.50;;;1.70;;
3777;SDS011;1904;50.076;8.660;2022-07-05T14:51:19;2.17;;;1.30;;
3777;SDS011;1904;50.076;8.660;2022-07-05T14:53:51;1.30;;;1.20;;
3777;SDS011;1904;50.076;8.660;2022-07-05T14:59:39;3.73;;;1.53;;
3777;SDS011;1904;50.076;8.660;2022-07-05T15:02:06;3.87;;;2.23;;
3777;SDS011;1904;50.076;8.660;2022-07-05T15:04:32;10.33;;;1.63;;
3777;SDS011;1904;50.076;8.660;2022-07-05T15:06:58;1.93;;;1.50;;
3777;SDS011;1904;50.076;8.660;2022-07-05T15:09:24;3.00;;;1.67;;
3777;SDS011;1904;50.076;8.660;2022-07-05T15:11:49;1.20;;;1.10;;
3777;SDS011;1904;50.076;8.660;2022-07-05T15:14:16;2.77;;;1.37;;
3777;SDS011;1904;50.076;8.660;2022-07-05T15:16:42;2.07;;;1.20;;
3777;SDS011;1904;50.076;8.660;2022-07-05T15:19:15;1.43;;;1.33;;
3777;SDS011;1904;50.076;8.660;2022-07-05T15:21:51;2.60;;;1.30;;
3777;SDS011;1904;50.076;8.660;2022-07-05T15:27:21;1.30;;;1.20;;
3777;SDS011;1904;50.076;8.660;2022-07-05T15:29:47;11.77;;;6.03;;
3777;SDS011;1904;50.076;8.660;2022-07-05T15:32:13;5.27;;;2.80;;
3777;SDS011;1904;50.076;8.660;2022-07-05T15:34:39;8.30;;;3.53;;
3777;SDS011;1904;50.076;8.660;2022-07-05T15:37:09;5.03;;;2.80;;
3777;SDS011;1904;50.076;8.660;2022-07-05T15:42:24;2.53;;;1.93;;
3777;SDS011;1904;50.076;8.660;2022-07-05T15:44:51;6.50;;;1.03;;
3777;SDS011;1904;50.076;8.660;2022-07-05T15:47:17;1.03;;;0.80;;
3777;SDS011;1904;50.076;8.660;2022-07-05T15:49:43;3.70;;;0.97;;
3777;SDS011;1904;50.076;8.660;2022-07-05T16:01:36;4.50;;;1.00;;
3777;SDS011;1904;50.076;8.660;2022-07-05T16:04:02;1.50;;;1.30;;
3777;SDS011;1904;50.076;8.660;2022-07-05T16:09:57;1.53;;;0.90;;
3777;SDS011;1904;50.076;8.660;2022-07-05T16:24:41;6.53;;;1.20;;
3777;SDS011;1904;50.076;8.660;2022-07-05T16:27:06;38.50;;;2.13;;
3777;SDS011;1904;50.076;8.660;2022-07-05T16:29:51;6.53;;;1.00;;
3777;SDS011;1904;50.076;8.660;2022-07-05T16:32:17;6.63;;;0.93;;
3777;SDS011;1904;50.076;8.660;2022-07-05T16:38:03;0.90;;;0.90;;
3777;SDS011;1904;50.076;8.660;2022-07-05T16:40:29;2.47;;;0.97;;
3777;SDS011;1904;50.076;8.660;2022-07-05T16:42:55;1.47;;;1.10;;
3777;SDS011;1904;50.076;8.660;2022-07-05T16:45:21;2.70;;;1.00;;
3777;SDS011;1904;50.076;8.660;2022-07-05T16:47:47;1.00;;;0.90;;
3777;SDS011;1904;50.076;8.660;2022-07-05T16:52:59;1.10;;;0.97;;
3777;SDS011;1904;50.076;8.660;2022-07-05T16:58:21;3.33;;;0.90;;
3777;SDS011;1904;50.076;8.660;2022-07-05T17:06:39;1.00;;;0.87;;
3777;SDS011;1904;50.076;8.660;2022-07-05T17:12:05;1.00;;;1.00;;
3777;SDS011;1904;50.076;8.660;2022-07-05T17:14:33;3.40;;;0.93;;
3777;SDS011;1904;50.076;8.660;2022-07-05T17:23:43;3.33;;;1.10;;
3777;SDS011;1904;50.076;8.660;2022-07-05T17:35:27;1.67;;;1.10;;
3777;SDS011;1904;50.076;8.660;2022-07-05T17:44:37;3.43;;;1.10;;
3777;SDS011;1904;50.076;8.660;2022-07-05T17:50:27;2.07;;;1.10;;
3777;SDS011;1904;50.076;8.660;2022-07-05T17:59:03;4.13;;;1.60;;
3777;SDS011;1904;50.076;8.660;2022-07-05T18:04:50;2.60;;;1.93;;
3777;SDS011;1904;50.076;8.660;2022-07-05T18:25:40;9.73;;;2.20;;
3777;SDS011;1904;50.076;8.660;2022-07-05T18:28:15;2.83;;;1.80;;
3777;SDS011;1904;50.076;8.660;2022-07-05T18:30:41;4.43;;;2.20;;
3777;SDS011;1904;50.076;8.660;2022-07-05T18:33:07;6.50;;;2.20;;
3777;SDS011;1904;50.076;8.660;2022-07-05T18:38:41;3.10;;;2.10;;
3777;SDS011;1904;50.076;8.660;2022-07-05T18:41:15;8.87;;;1.87;;
3777;SDS011;1904;50.076;8.660;2022-07-05T18:43:42;9.73;;;2.20;;
3777;SDS011;1904;50.076;8.660;2022-07-05T18:46:08;47.50;;;3.20;;
3777;SDS011;1904;50.076;8.660;2022-07-05T18:48:33;7.37;;;1.90;;
3777;SDS011;1904;50.076;8.660;2022-07-05T18:50:59;3.90;;;1.90;;
3777;SDS011;1904;50.076;8.660;2022-07-05T18:53:25;8.90;;;2.00;;
3777;SDS011;1904;50.076;8.660;2022-07-05T18:55:51;2.17;;;1.80;;
3777;SDS011;1904;50.076;8.660;2022-07-05T18:58:17;4.77;;;2.00;;
3777;SDS011;1904;50.076;8.660;2022-07-05T19:00:43;1.80;;;1.70;;
3777;SDS011;1904;50.076;8.660;2022-07-05T19:03:09;3.27;;;1.90;;
3777;SDS011;1904;50.076;8.660;2022-07-05T19:05:35;4.60;;;2.87;;
3777;SDS011;1904;50.076;8.660;2022-07-05T19:11:23;3.30;;;2.23;;
3777;SDS011;1904;50.076;8.660;2022-07-05T19:14:07;2.03;;;1.80;;
3777;SDS011;1904;50.076;8.660;2022-07-05T19:19:54;2.33;;;1.70;;
3777;SDS011;1904;50.076;8.660;2022-07-05T19:25:42;7.33;;;1.97;;
3777;SDS011;1904;50.076;8.660;2022-07-05T19:34:27;4.30;;;1.80;;
3777;SDS011;1904;50.076;8.660;2022-07-05T19:36:53;2.63;;;1.73;;
3777;SDS011;1904;50.076;8.660;2022-07-05T19:39:22;7.77;;;2.20;;
3777;SDS011;1904;50.076;8.660;2022-07-05T19:41:47;5.30;;;1.93;;
3777;SDS011;1904;50.076;8.660;2022-07-05T19:44:13;1.70;;;1.60;;
3777;SDS011;1904;50.076;8.660;2022-07-05T19:46:39;3.03;;;1.60;;
3777;SDS011;1904;50.076;8.660;2022-07-05T19:49:05;1.90;;;1.80;;
3777;SDS011;1904;50.076;8.660;2022-07-05T19:51:30;5.13;;;1.70;;
3777;SDS011;1904;50.076;8.660;2022-07-05T19:53:57;4.30;;;1.70;;
3777;SDS011;1904;50.076;8.660;2022-07-05T19:56:39;4.43;;;1.87;;
3777;SDS011;1904;50.076;8.660;2022-07-05T19:59:05;1.63;;;1.53;;
3777;SDS011;1904;50.076;8.660;2022-07-05T20:07:47;2.37;;;1.40;;
3777;SDS011;1904;50.076;8.660;2022-07-05T20:10:12;1.50;;;1.40;;
3777;SDS011;1904;50.076;8.660;2022-07-05T20:12:38;2.10;;;1.27;;
3777;SDS011;1904;50.076;8.660;2022-07-05T20:15:04;1.40;;;1.30;;
3777;SDS011;1904;50.076;8.660;2022-07-05T20:17:30;1.83;;;1.47;;
3777;SDS011;1904;50.076;8.660;2022-07-05T20:19:56;1.80;;;1.70;;
3777;SDS011;1904;50.076;8.660;2022-07-05T20:22:33;2.73;;;1.67;;
3777;SDS011;1904;50.076;8.660;2022-07-05T20:28:15;1.80;;;1.70;;
3777;SDS011;1904;50.076;8.660;2022-07-05T20:37:21;5.13;;;1.67;;
3777;SDS011;1904;50.076;8.660;2022-07-05T20:39:47;3.83;;;1.77;;
3777;SDS011;1904;50.076;8.660;2022-07-05T20:42:15;1.70;;;1.60;;
3777;SDS011;1904;50.076;8.660;2022-07-05T20:44:45;3.27;;;1.77;;
3777;SDS011;1904;50.076;8.660;2022-07-05T20:47:11;4.80;;;1.80;;
3777;SDS011;1904;50.076;8.660;2022-07-05T20:49:39;8.70;;;1.93;;
3777;SDS011;1904;50.076;8.660;2022-07-05T20:52:10;1.93;;;1.60;;
3777;SDS011;1904;50.076;8.660;2022-07-05T20:54:35;2.33;;;1.60;;
3777;SDS011;1904;50.076;8.660;2022-07-05T20:57:03;2.33;;;2.00;;
3777;SDS011;1904;50.076;8.660;2022-07-05T20:59:33;1.90;;;1.80;;
3777;SDS011;1904;50.076;8.660;2022-07-05T21:02:04;1.97;;;1.77;;
3777;SDS011;1904;50.076;8.660;2022-07-05T21:04:30;5.60;;;1.80;;
3777;SDS011;1904;50.076;8.660;2022-07-05T21:06:58;2.60;;;1.90;;
3777;SDS011;1904;50.076;8.660;2022-07-05T21:09:23;1.83;;;1.73;;
3777;SDS011;1904;50.076;8.660;2022-07-05T21:11:52;1.90;;;1.70;;
3777;SDS011;1904;50.076;8.660;2022-07-05T21:14:21;8.60;;;1.70;;
3777;SDS011;1904;50.076;8.660;2022-07-05T21:16:51;3.73;;;1.60;;
3777;SDS011;1904;50.076;8.660;2022-07-05T21:19:19;9.80;;;1.90;;
3777;SDS011;1904;50.076;8.660;2022-07-05T21:21:45;3.53;;;2.00;;
3777;SDS011;1904;50.076;8.660;2022-07-05T21:24:21;1.80;;;1.70;;
3777;SDS011;1904;50.076;8.660;2022-07-05T21:26:47;2.10;;;1.70;;
3777;SDS011;1904;50.076;8.660;2022-07-05T21:29:13;3.20;;;2.30;;
3777;SDS011;1904;50.076;8.660;2022-07-05T21:31:38;1.83;;;1.73;;
3777;SDS011;1904;50.076;8.660;2022-07-05T21:34:04;1.93;;;1.83;;
3777;SDS011;1904;50.076;8.660;2022-07-05T21:36:30;1.90;;;1.80;;
3777;SDS011;1904;50.076;8.660;2022-07-05T21:38:55;3.27;;;1.77;;
3777;SDS011;1904;50.076;8.660;2022-07-05T21:41:21;4.90;;;1.70;;
3777;SDS011;1904;50.076;8.660;2022-07-05T21:43:47;5.00;;;2.03;;
3777;SDS011;1904;50.076;8.660;2022-07-05T21:46:22;1.93;;;1.80;;
3777;SDS011;1904;50.076;8.660;2022-07-05T21:48:47;2.50;;;1.73;;
3777;SDS011;1904;50.076;8.660;2022-07-05T21:51:13;4.53;;;1.90;;
3777;SDS011;1904;50.076;8.660;2022-07-05T21:56:35;10.60;;;2.10;;
3777;SDS011;1904;50.076;8.660;2022-07-05T22:05:45;2.83;;;1.93;;
3777;SDS011;1904;50.076;8.660;2022-07-05T22:14:21;4.13;;;1.90;;
3777;SDS011;1904;50.076;8.660;2022-07-05T22:19:41;11.70;;;2.03;;
3777;SDS011;1904;50.076;8.660;2022-07-05T22:25:34;29.03;;;3.13;;
3777;SDS011;1904;50.076;8.660;2022-07-05T22:27:59;9.40;;;2.20;;
3777;SDS011;1904;50.076;8.660;2022-07-05T22:30:25;2.27;;;2.07;;
3777;SDS011;1904;50.076;8.660;2022-07-05T22:32:51;3.50;;;2.57;;
3777;SDS011;1904;50.076;8.660;2022-07-05T22:35:17;4.70;;;2.20;;
3777;SDS011;1904;50.076;8.660;2022-07-05T22:37:42;15.97;;;2.30;;
3777;SDS011;1904;50.076;8.660;2022-07-05T22:40:08;4.77;;;2.00;;
3777;SDS011;1904;50.076;8.660;2022-07-05T22:42:35;4.93;;;1.87;;
3777;SDS011;1904;50.076;8.660;2022-07-05T22:45:00;2.27;;;1.77;;
3777;SDS011;1904;50.076;8.660;2022-07-05T22:47:26;3.90;;;1.90;;
3777;SDS011;1904;50.076;8.660;2022-07-05T22:49:58;8.73;;;2.43;;
3777;SDS011;1904;50.076;8.660;2022-07-05T22:52:33;3.73;;;1.63;;
3777;SDS011;1904;50.076;8.660;2022-07-05T22:54:59;5.97;;;2.57;;
3777;SDS011;1904;50.076;8.660;2022-07-05T22:57:27;2.20;;;2.10;;
3777;SDS011;1904;50.076;8.660;2022-07-05T22:59:53;14.47;;;2.53;;